JST1A YMML-YSSY
Flight info
| Callsign | JST1A |
|---|---|
| Flight time | 1h 5m |
| Altitude | 35000 |
| Route | ML H129 DOSEL Y59 RIVET |
| Aircraft | A321/M-SDE3FGHIRWY/LB1 |
Departure
| Time | 2026-05-08 06:43 |
|---|---|
| Airport | Melbourne Airport (YMML) |
Arrival
| Time | 2026-05-08 07:48 |
|---|---|
| Airport | Sydney Kingsford Smith International Airport (YSSY) |
| Time | Latitude | Longitude | Altitude | Speed | Heading |
|---|---|---|---|---|---|
| 2026-05-08 06:18 | -37.66681 | 144.84875 | 334 ft | 0 kts | 85° |
| 2026-05-08 06:33 | -37.66682 | 144.84864 | 339 ft | 3 kts | 85° |
| 2026-05-08 06:33 | -37.66683 | 144.84841 | 337 ft | 3 kts | 77° |
| 2026-05-08 06:33 | -37.66692 | 144.84822 | 335 ft | 3 kts | 16° |
| 2026-05-08 06:34 | -37.66701 | 144.84820 | 336 ft | 0 kts | 353° |
| 2026-05-08 06:37 | -37.66699 | 144.84818 | 336 ft | 0 kts | 343° |
| 2026-05-08 06:40 | -37.66676 | 144.84809 | 334 ft | 5 kts | 343° |
| 2026-05-08 06:40 | -37.66624 | 144.84795 | 334 ft | 10 kts | 356° |
| 2026-05-08 06:40 | -37.66545 | 144.84798 | 335 ft | 14 kts | 349° |
| 2026-05-08 06:41 | -37.66441 | 144.84776 | 329 ft | 16 kts | 2° |
| 2026-05-08 06:41 | -37.66364 | 144.84786 | 330 ft | 0 kts | 3° |
| 2026-05-08 06:42 | -37.66363 | 144.84786 | 327 ft | 2 kts | 2° |
| 2026-05-08 06:42 | -37.66296 | 144.84783 | 328 ft | 16 kts | 356° |
| 2026-05-08 06:42 | -37.66230 | 144.84770 | 330 ft | 4 kts | 311° |
| 2026-05-08 06:43 | -37.66223 | 144.84716 | 335 ft | 23 kts | 277° |
| 2026-05-08 06:43 | -37.66195 | 144.84200 | 368 ft | 92 kts | 273° |
| 2026-05-08 06:43 | -37.66141 | 144.83134 | 413 ft | 149 kts | 268° |
| 2026-05-08 06:43 | -37.66070 | 144.81814 | 1105 ft | 144 kts | 272° |
| 2026-05-08 06:44 | -37.65977 | 144.80550 | 1820 ft | 147 kts | 266° |
| 2026-05-08 06:44 | -37.65919 | 144.79252 | 2413 ft | 149 kts | 266° |
| 2026-05-08 06:44 | -37.65847 | 144.77872 | 2737 ft | 169 kts | 268° |
| 2026-05-08 06:44 | -37.65760 | 144.76299 | 3023 ft | 191 kts | 268° |
| 2026-05-08 06:45 | -37.65659 | 144.74531 | 3235 ft | 214 kts | 268° |
| 2026-05-08 06:45 | -37.65545 | 144.72547 | 3499 ft | 239 kts | 269° |
| 2026-05-08 06:45 | -37.65417 | 144.70404 | 4133 ft | 248 kts | 268° |
| 2026-05-08 06:45 | -37.65272 | 144.68210 | 4917 ft | 254 kts | 271° |
| 2026-05-08 06:46 | -37.64630 | 144.66077 | 5627 ft | 274 kts | 302° |
| 2026-05-08 06:46 | -37.63070 | 144.64593 | 6336 ft | 292 kts | 331° |
| 2026-05-08 06:46 | -37.61150 | 144.63674 | 7087 ft | 298 kts | 339° |
| 2026-05-08 06:46 | -37.59142 | 144.62954 | 7803 ft | 302 kts | 342° |
| 2026-05-08 06:47 | -37.57047 | 144.62545 | 8498 ft | 310 kts | 360° |
| 2026-05-08 06:47 | -37.54907 | 144.62994 | 9211 ft | 315 kts | 18° |
| 2026-05-08 06:47 | -37.52931 | 144.64208 | 9925 ft | 318 kts | 37° |
| 2026-05-08 06:47 | -37.51314 | 144.66109 | 10475 ft | 324 kts | 54° |
| 2026-05-08 06:48 | -37.49872 | 144.68420 | 10624 ft | 347 kts | 55° |
| 2026-05-08 06:48 | -37.48368 | 144.70916 | 10771 ft | 367 kts | 55° |
| 2026-05-08 06:48 | -37.46936 | 144.73617 | 11273 ft | 373 kts | 63° |
| 2026-05-08 06:48 | -37.45663 | 144.76479 | 11907 ft | 377 kts | 63° |
| 2026-05-08 06:49 | -37.44361 | 144.79362 | 12551 ft | 381 kts | 63° |
| 2026-05-08 06:49 | -37.43034 | 144.82263 | 13194 ft | 384 kts | 63° |
| 2026-05-08 06:49 | -37.41686 | 144.85193 | 13818 ft | 388 kts | 63° |
| 2026-05-08 06:49 | -37.40325 | 144.88144 | 14429 ft | 392 kts | 63° |
| 2026-05-08 06:50 | -37.38953 | 144.91117 | 15032 ft | 394 kts | 63° |
| 2026-05-08 06:50 | -37.37592 | 144.94068 | 15631 ft | 397 kts | 63° |
| 2026-05-08 06:50 | -37.36203 | 144.97078 | 16213 ft | 400 kts | 62° |
| 2026-05-08 06:50 | -37.34801 | 145.00111 | 16817 ft | 403 kts | 62° |
| 2026-05-08 06:51 | -37.33390 | 145.03162 | 17433 ft | 405 kts | 62° |
| 2026-05-08 06:51 | -37.31973 | 145.06228 | 18043 ft | 407 kts | 62° |
| 2026-05-08 06:51 | -37.30547 | 145.09311 | 18632 ft | 409 kts | 62° |
| 2026-05-08 06:51 | -37.29113 | 145.12409 | 19137 ft | 412 kts | 62° |
| 2026-05-08 06:52 | -37.27668 | 145.15531 | 19654 ft | 414 kts | 62° |
| 2026-05-08 06:52 | -37.26219 | 145.18665 | 20172 ft | 417 kts | 63° |
| 2026-05-08 06:52 | -37.24760 | 145.21820 | 20709 ft | 419 kts | 62° |
| 2026-05-08 06:52 | -37.23289 | 145.24989 | 21209 ft | 421 kts | 62° |
| 2026-05-08 06:53 | -37.21809 | 145.28174 | 21728 ft | 424 kts | 62° |
| 2026-05-08 06:53 | -37.20318 | 145.31375 | 22229 ft | 426 kts | 62° |
| 2026-05-08 06:53 | -37.18820 | 145.34586 | 22700 ft | 428 kts | 63° |
| 2026-05-08 06:53 | -37.17310 | 145.37823 | 23164 ft | 431 kts | 63° |
| 2026-05-08 06:54 | -37.15678 | 145.41002 | 23614 ft | 435 kts | 57° |
| 2026-05-08 06:54 | -37.13905 | 145.44093 | 24028 ft | 438 kts | 57° |
| 2026-05-08 06:54 | -37.12120 | 145.47202 | 24358 ft | 442 kts | 57° |
| 2026-05-08 06:54 | -37.10315 | 145.50345 | 24708 ft | 445 kts | 57° |
| 2026-05-08 06:55 | -37.08503 | 145.53503 | 25079 ft | 447 kts | 57° |
| 2026-05-08 06:55 | -37.06681 | 145.56677 | 25427 ft | 450 kts | 57° |
| 2026-05-08 06:55 | -37.04847 | 145.59869 | 25776 ft | 453 kts | 57° |
| 2026-05-08 06:55 | -37.02997 | 145.63077 | 26126 ft | 455 kts | 57° |
| 2026-05-08 06:56 | -37.01140 | 145.66294 | 26462 ft | 458 kts | 57° |
| 2026-05-08 06:56 | -36.99261 | 145.69542 | 26640 ft | 465 kts | 57° |
| 2026-05-08 06:56 | -36.97351 | 145.72847 | 26770 ft | 472 kts | 57° |
| 2026-05-08 06:56 | -36.95418 | 145.76195 | 26900 ft | 479 kts | 57° |
| 2026-05-08 06:57 | -36.93453 | 145.79592 | 27045 ft | 486 kts | 57° |
| 2026-05-08 06:57 | -36.91478 | 145.83000 | 27184 ft | 492 kts | 57° |
| 2026-05-08 06:57 | -36.89465 | 145.86472 | 27411 ft | 495 kts | 57° |
| 2026-05-08 06:57 | -36.87431 | 145.89978 | 27658 ft | 498 kts | 57° |
| 2026-05-08 06:58 | -36.85395 | 145.93482 | 27909 ft | 500 kts | 57° |
| 2026-05-08 06:58 | -36.83348 | 145.96996 | 28220 ft | 500 kts | 57° |
| 2026-05-08 06:58 | -36.81302 | 146.00505 | 28579 ft | 500 kts | 57° |
| 2026-05-08 06:58 | -36.79256 | 146.04007 | 28933 ft | 499 kts | 57° |
| 2026-05-08 06:59 | -36.77208 | 146.07507 | 29275 ft | 500 kts | 57° |
| 2026-05-08 06:59 | -36.75160 | 146.11012 | 29582 ft | 500 kts | 57° |
| 2026-05-08 06:59 | -36.73106 | 146.14531 | 29905 ft | 501 kts | 57° |
| 2026-05-08 06:59 | -36.71058 | 146.18037 | 30250 ft | 501 kts | 57° |
| 2026-05-08 07:00 | -36.69030 | 146.21500 | 30550 ft | 500 kts | 57° |
| 2026-05-08 07:00 | -36.66952 | 146.25040 | 30842 ft | 500 kts | 57° |
| 2026-05-08 07:00 | -36.64903 | 146.28532 | 31163 ft | 499 kts | 57° |
| 2026-05-08 07:00 | -36.62856 | 146.32014 | 31492 ft | 498 kts | 57° |
| 2026-05-08 07:01 | -36.60809 | 146.35487 | 31791 ft | 497 kts | 57° |
| 2026-05-08 07:01 | -36.58765 | 146.38952 | 32109 ft | 496 kts | 57° |
| 2026-05-08 07:01 | -36.56727 | 146.42405 | 32418 ft | 495 kts | 57° |
| 2026-05-08 07:01 | -36.54714 | 146.45817 | 32729 ft | 494 kts | 57° |
| 2026-05-08 07:02 | -36.52684 | 146.49256 | 33024 ft | 493 kts | 57° |
| 2026-05-08 07:02 | -36.50653 | 146.52690 | 33320 ft | 493 kts | 58° |
| 2026-05-08 07:02 | -36.48620 | 146.56125 | 33614 ft | 492 kts | 57° |
| 2026-05-08 07:02 | -36.46596 | 146.59539 | 33915 ft | 491 kts | 57° |
| 2026-05-08 07:03 | -36.44571 | 146.62948 | 34210 ft | 490 kts | 57° |
| 2026-05-08 07:03 | -36.42549 | 146.66348 | 34464 ft | 489 kts | 57° |
| 2026-05-08 07:03 | -36.40531 | 146.69748 | 34718 ft | 488 kts | 57° |
| 2026-05-08 07:03 | -36.38520 | 146.73135 | 35015 ft | 485 kts | 57° |
| 2026-05-08 07:04 | -36.36526 | 146.76488 | 35185 ft | 481 kts | 57° |
| 2026-05-08 07:04 | -36.34533 | 146.79835 | 35220 ft | 484 kts | 57° |
| 2026-05-08 07:04 | -36.30522 | 146.86553 | 35218 ft | 486 kts | 57° |
| 2026-05-08 07:05 | -36.26498 | 146.93287 | 35216 ft | 486 kts | 57° |
| 2026-05-08 07:05 | -36.22463 | 147.00017 | 35214 ft | 486 kts | 57° |
| 2026-05-08 07:06 | -36.18545 | 147.06839 | 35206 ft | 483 kts | 64° |
| 2026-05-08 07:06 | -36.15671 | 147.14282 | 35221 ft | 484 kts | 59° |
| 2026-05-08 07:07 | -36.13470 | 147.17448 | 35211 ft | 489 kts | 45° |
| 2026-05-08 07:07 | -36.10947 | 147.20279 | 35204 ft | 490 kts | 44° |
| 2026-05-08 07:07 | -36.06467 | 147.26552 | 35197 ft | 486 kts | 56° |
| 2026-05-08 07:08 | -36.02418 | 147.33261 | 35207 ft | 487 kts | 56° |
| 2026-05-08 07:08 | -35.98365 | 147.39963 | 35228 ft | 488 kts | 56° |
| 2026-05-08 07:09 | -35.94289 | 147.46672 | 35217 ft | 489 kts | 56° |
| 2026-05-08 07:09 | -35.90195 | 147.53384 | 35219 ft | 488 kts | 56° |
| 2026-05-08 07:10 | -35.86164 | 147.59981 | 35220 ft | 478 kts | 56° |
| 2026-05-08 07:10 | -35.82169 | 147.66509 | 35234 ft | 477 kts | 56° |
| 2026-05-08 07:11 | -35.78171 | 147.73061 | 35223 ft | 478 kts | 56° |
| 2026-05-08 07:11 | -35.74189 | 147.79559 | 35223 ft | 478 kts | 56° |
| 2026-05-08 07:12 | -35.70177 | 147.86099 | 35226 ft | 478 kts | 56° |
| 2026-05-08 07:12 | -35.66149 | 147.92632 | 35239 ft | 479 kts | 56° |
| 2026-05-08 07:13 | -35.62114 | 147.99157 | 35223 ft | 480 kts | 55° |
| 2026-05-08 07:13 | -35.58068 | 148.05693 | 35221 ft | 481 kts | 55° |
| 2026-05-08 07:14 | -35.54696 | 148.11132 | 35225 ft | 481 kts | 55° |
| 2026-05-08 07:14 | -35.50644 | 148.17680 | 35223 ft | 482 kts | 54° |
| 2026-05-08 07:15 | -35.46584 | 148.24240 | 35239 ft | 483 kts | 55° |
| 2026-05-08 07:15 | -35.42502 | 148.30791 | 35233 ft | 484 kts | 55° |
| 2026-05-08 07:16 | -35.38405 | 148.37347 | 35235 ft | 485 kts | 55° |
| 2026-05-08 07:16 | -35.34304 | 148.43906 | 35229 ft | 485 kts | 54° |
| 2026-05-08 07:17 | -35.30210 | 148.50432 | 35249 ft | 486 kts | 54° |
| 2026-05-08 07:17 | -35.26093 | 148.57000 | 35239 ft | 487 kts | 54° |
| 2026-05-08 07:18 | -35.21953 | 148.63579 | 35230 ft | 488 kts | 54° |
| 2026-05-08 07:18 | -35.17809 | 148.70155 | 35218 ft | 489 kts | 54° |
| 2026-05-08 07:19 | -35.13661 | 148.76736 | 35247 ft | 489 kts | 54° |
| 2026-05-08 07:19 | -35.09499 | 148.83339 | 35231 ft | 490 kts | 54° |
| 2026-05-08 07:20 | -35.05339 | 148.89920 | 35217 ft | 490 kts | 53° |
| 2026-05-08 07:20 | -35.01158 | 148.96500 | 35218 ft | 490 kts | 53° |
| 2026-05-08 07:21 | -34.99067 | 148.99785 | 35031 ft | 490 kts | 53° |
| 2026-05-08 07:21 | -34.96977 | 149.03066 | 34793 ft | 490 kts | 54° |
| 2026-05-08 07:21 | -34.94888 | 149.06345 | 34578 ft | 490 kts | 54° |
| 2026-05-08 07:21 | -34.92799 | 149.09626 | 34347 ft | 490 kts | 54° |
| 2026-05-08 07:22 | -34.90708 | 149.12908 | 34085 ft | 490 kts | 54° |
| 2026-05-08 07:22 | -34.88619 | 149.16183 | 33812 ft | 490 kts | 54° |
| 2026-05-08 07:22 | -34.86540 | 149.19479 | 33540 ft | 490 kts | 57° |
| 2026-05-08 07:22 | -34.84747 | 149.22989 | 33279 ft | 489 kts | 61° |
| 2026-05-08 07:23 | -34.83006 | 149.26549 | 33008 ft | 490 kts | 62° |
| 2026-05-08 07:23 | -34.81273 | 149.30111 | 32522 ft | 488 kts | 62° |
| 2026-05-08 07:23 | -34.79551 | 149.33661 | 31944 ft | 486 kts | 62° |
| 2026-05-08 07:23 | -34.77830 | 149.37202 | 31385 ft | 484 kts | 61° |
| 2026-05-08 07:24 | -34.76116 | 149.40714 | 30795 ft | 483 kts | 61° |
| 2026-05-08 07:24 | -34.74404 | 149.44214 | 30234 ft | 481 kts | 60° |
| 2026-05-08 07:24 | -34.72694 | 149.47703 | 29619 ft | 478 kts | 60° |
| 2026-05-08 07:24 | -34.70997 | 149.51161 | 29055 ft | 474 kts | 60° |
| 2026-05-08 07:25 | -34.69311 | 149.54590 | 28495 ft | 471 kts | 60° |
| 2026-05-08 07:25 | -34.67637 | 149.57995 | 27943 ft | 468 kts | 60° |
| 2026-05-08 07:25 | -34.64324 | 149.64735 | 26842 ft | 462 kts | 61° |
| 2026-05-08 07:26 | -34.62684 | 149.68065 | 26319 ft | 458 kts | 61° |
| 2026-05-08 07:26 | -34.61054 | 149.71371 | 25800 ft | 454 kts | 60° |
| 2026-05-08 07:26 | -34.59437 | 149.74650 | 25285 ft | 451 kts | 60° |
| 2026-05-08 07:26 | -34.57829 | 149.77902 | 24791 ft | 448 kts | 60° |
| 2026-05-08 07:27 | -34.56226 | 149.81135 | 24300 ft | 445 kts | 60° |
| 2026-05-08 07:27 | -34.54634 | 149.84341 | 23810 ft | 442 kts | 60° |
| 2026-05-08 07:27 | -34.53073 | 149.87490 | 23284 ft | 439 kts | 60° |
| 2026-05-08 07:27 | -34.51488 | 149.90688 | 22813 ft | 435 kts | 61° |
| 2026-05-08 07:28 | -34.49938 | 149.93825 | 22353 ft | 432 kts | 62° |
| 2026-05-08 07:28 | -34.48483 | 149.96920 | 21914 ft | 427 kts | 64° |
| 2026-05-08 07:28 | -34.47076 | 150.00084 | 21472 ft | 423 kts | 65° |
| 2026-05-08 07:28 | -34.45719 | 150.03227 | 21017 ft | 420 kts | 65° |
| 2026-05-08 07:29 | -34.44381 | 150.06344 | 20566 ft | 417 kts | 65° |
| 2026-05-08 07:29 | -34.43044 | 150.09435 | 20105 ft | 414 kts | 65° |
| 2026-05-08 07:29 | -34.41700 | 150.12506 | 19650 ft | 411 kts | 65° |
| 2026-05-08 07:29 | -34.40353 | 150.15550 | 19186 ft | 409 kts | 65° |
| 2026-05-08 07:30 | -34.39009 | 150.18570 | 18724 ft | 406 kts | 64° |
| 2026-05-08 07:30 | -34.37677 | 150.21570 | 18230 ft | 404 kts | 64° |
| 2026-05-08 07:30 | -34.36348 | 150.24553 | 17699 ft | 401 kts | 64° |
| 2026-05-08 07:30 | -34.35020 | 150.27524 | 17180 ft | 399 kts | 64° |
| 2026-05-08 07:31 | -34.33704 | 150.30466 | 16654 ft | 396 kts | 64° |
| 2026-05-08 07:31 | -34.32398 | 150.33381 | 16150 ft | 393 kts | 65° |
| 2026-05-08 07:31 | -34.31100 | 150.36278 | 15652 ft | 390 kts | 64° |
| 2026-05-08 07:31 | -34.29814 | 150.39147 | 15158 ft | 387 kts | 65° |
| 2026-05-08 07:32 | -34.28531 | 150.42008 | 14668 ft | 384 kts | 64° |
| 2026-05-08 07:32 | -34.27264 | 150.44829 | 14334 ft | 377 kts | 64° |
| 2026-05-08 07:32 | -34.26043 | 150.47553 | 14026 ft | 371 kts | 64° |
| 2026-05-08 07:32 | -34.24829 | 150.50271 | 13552 ft | 369 kts | 64° |
| 2026-05-08 07:33 | -34.23619 | 150.52983 | 13105 ft | 365 kts | 64° |
| 2026-05-08 07:33 | -34.22402 | 150.55706 | 12667 ft | 362 kts | 65° |
| 2026-05-08 07:33 | -34.21211 | 150.58366 | 12262 ft | 358 kts | 65° |
| 2026-05-08 07:33 | -34.20049 | 150.60950 | 11826 ft | 355 kts | 65° |
| 2026-05-08 07:34 | -34.18877 | 150.63559 | 11364 ft | 353 kts | 64° |
| 2026-05-08 07:34 | -34.17713 | 150.66147 | 10952 ft | 350 kts | 64° |
| 2026-05-08 07:34 | -34.16554 | 150.68723 | 10538 ft | 348 kts | 64° |
| 2026-05-08 07:34 | -34.15410 | 150.71265 | 10295 ft | 339 kts | 64° |
| 2026-05-08 07:35 | -34.14305 | 150.73719 | 10176 ft | 327 kts | 64° |
| 2026-05-08 07:35 | -34.13233 | 150.76094 | 10004 ft | 318 kts | 65° |
| 2026-05-08 07:35 | -34.12187 | 150.78414 | 9722 ft | 317 kts | 65° |
| 2026-05-08 07:35 | -34.11131 | 150.80759 | 9316 ft | 317 kts | 65° |
| 2026-05-08 07:36 | -34.10086 | 150.83076 | 9010 ft | 313 kts | 65° |
| 2026-05-08 07:36 | -34.09044 | 150.85389 | 8617 ft | 312 kts | 66° |
| 2026-05-08 07:36 | -34.08015 | 150.87678 | 8227 ft | 311 kts | 66° |
| 2026-05-08 07:36 | -34.06995 | 150.89946 | 7891 ft | 309 kts | 66° |
| 2026-05-08 07:37 | -34.06010 | 150.92134 | 7572 ft | 306 kts | 66° |
| 2026-05-08 07:37 | -34.04997 | 150.94378 | 7284 ft | 303 kts | 66° |
| 2026-05-08 07:37 | -34.03995 | 150.96598 | 6950 ft | 301 kts | 66° |
| 2026-05-08 07:37 | -34.03011 | 150.98754 | 6626 ft | 298 kts | 63° |
| 2026-05-08 07:38 | -34.01594 | 151.00617 | 6350 ft | 300 kts | 36° |
| 2026-05-08 07:38 | -33.99697 | 151.01563 | 5985 ft | 300 kts | 8° |
| 2026-05-08 07:38 | -33.97610 | 151.01523 | 5632 ft | 298 kts | 350° |
| 2026-05-08 07:38 | -33.95566 | 151.01144 | 5279 ft | 296 kts | 348° |
| 2026-05-08 07:39 | -33.93563 | 151.00737 | 4928 ft | 296 kts | 348° |
| 2026-05-08 07:39 | -33.91538 | 151.00329 | 4567 ft | 294 kts | 348° |
| 2026-05-08 07:39 | -33.89521 | 150.99923 | 4211 ft | 293 kts | 348° |
| 2026-05-08 07:39 | -33.87523 | 150.99532 | 3898 ft | 291 kts | 348° |
| 2026-05-08 07:40 | -33.85547 | 150.99160 | 3744 ft | 282 kts | 348° |
| 2026-05-08 07:40 | -33.83647 | 150.98812 | 3580 ft | 272 kts | 348° |
| 2026-05-08 07:40 | -33.81806 | 150.98486 | 3430 ft | 263 kts | 347° |
| 2026-05-08 07:40 | -33.80028 | 150.98187 | 3290 ft | 253 kts | 348° |
| 2026-05-08 07:41 | -33.78466 | 150.97928 | 3172 ft | 250 kts | 348° |
| 2026-05-08 07:41 | -33.76685 | 150.97709 | 3042 ft | 252 kts | 359° |
| 2026-05-08 07:41 | -33.75006 | 150.98323 | 3002 ft | 258 kts | 32° |
| 2026-05-08 07:41 | -33.73787 | 150.99867 | 3009 ft | 254 kts | 64° |
| 2026-05-08 07:42 | -33.73236 | 151.01853 | 3016 ft | 249 kts | 81° |
| 2026-05-08 07:42 | -33.72868 | 151.03884 | 3009 ft | 249 kts | 82° |
| 2026-05-08 07:42 | -33.72516 | 151.05922 | 3013 ft | 249 kts | 84° |
| 2026-05-08 07:42 | -33.72529 | 151.07938 | 2993 ft | 238 kts | 113° |
| 2026-05-08 07:43 | -33.73291 | 151.09590 | 3015 ft | 221 kts | 134° |
| 2026-05-08 07:43 | -33.74224 | 151.10967 | 3009 ft | 201 kts | 137° |
| 2026-05-08 07:43 | -33.75089 | 151.12115 | 3013 ft | 168 kts | 149° |
| 2026-05-08 07:43 | -33.76041 | 151.12765 | 3006 ft | 151 kts | 168° |
| 2026-05-08 07:44 | -33.77054 | 151.13050 | 3015 ft | 149 kts | 175° |
| 2026-05-08 07:44 | -33.78057 | 151.13310 | 2944 ft | 146 kts | 176° |
| 2026-05-08 07:44 | -33.79031 | 151.13562 | 2817 ft | 141 kts | 176° |
| 2026-05-08 07:44 | -33.79980 | 151.13807 | 2637 ft | 139 kts | 176° |
| 2026-05-08 07:45 | -33.80921 | 151.14050 | 2454 ft | 138 kts | 176° |
| 2026-05-08 07:45 | -33.81858 | 151.14291 | 2281 ft | 138 kts | 177° |
| 2026-05-08 07:45 | -33.82793 | 151.14533 | 2086 ft | 137 kts | 178° |
| 2026-05-08 07:45 | -33.83717 | 151.14773 | 1915 ft | 137 kts | 179° |
| 2026-05-08 07:46 | -33.84643 | 151.15012 | 1729 ft | 136 kts | 178° |
| 2026-05-08 07:46 | -33.85567 | 151.15251 | 1521 ft | 140 kts | 177° |
| 2026-05-08 07:46 | -33.86519 | 151.15496 | 1348 ft | 139 kts | 177° |
| 2026-05-08 07:46 | -33.87467 | 151.15743 | 1186 ft | 141 kts | 179° |
| 2026-05-08 07:47 | -33.88404 | 151.16002 | 1049 ft | 137 kts | 178° |
| 2026-05-08 07:47 | -33.89348 | 151.16242 | 805 ft | 140 kts | 178° |
| 2026-05-08 07:47 | -33.90306 | 151.16467 | 641 ft | 141 kts | 175° |
| 2026-05-08 07:47 | -33.91257 | 151.16724 | 412 ft | 140 kts | 179° |
| 2026-05-08 07:48 | -33.92214 | 151.16975 | 270 ft | 141 kts | 173° |
| 2026-05-08 07:48 | -33.93166 | 151.17229 | 64 ft | 140 kts | 176° |
| 2026-05-08 07:48 | -33.94037 | 151.17434 | 26 ft | 105 kts | 168° |
| 2026-05-08 07:48 | -33.94457 | 151.17551 | 30 ft | 27 kts | 167° |
| 2026-05-08 07:49 | -33.94532 | 151.17652 | 30 ft | 16 kts | 89° |
| 2026-05-08 07:49 | -33.94530 | 151.17665 | 30 ft | 0 kts | 79° |
| 2026-05-08 07:49 | -33.94525 | 151.17692 | 30 ft | 9 kts | 79° |
| 2026-05-08 07:50 | -33.94496 | 151.17774 | 30 ft | 11 kts | 30° |
| 2026-05-08 07:50 | -33.94419 | 151.17762 | 30 ft | 12 kts | 346° |
| 2026-05-08 07:50 | -33.94332 | 151.17736 | 30 ft | 14 kts | 345° |
| 2026-05-08 07:51 | -33.94017 | 151.17641 | 28 ft | 19 kts | 349° |
| 2026-05-08 07:51 | -33.93887 | 151.17606 | 29 ft | 20 kts | 346° |
| 2026-05-08 07:51 | -33.93750 | 151.17569 | 29 ft | 21 kts | 347° |
| 2026-05-08 07:52 | -33.93647 | 151.17596 | 30 ft | 13 kts | 57° |
| 2026-05-08 07:52 | -33.93646 | 151.17702 | 30 ft | 14 kts | 100° |
| 2026-05-08 07:52 | -33.93652 | 151.17804 | 30 ft | 8 kts | 52° |
| 2026-05-08 07:52 | -33.93616 | 151.17836 | 30 ft | 4 kts | 77° |
| 2026-05-08 07:53 | -33.93623 | 151.17878 | 30 ft | 6 kts | 100° |
| 2026-05-08 07:53 | -33.93625 | 151.17890 | 30 ft | 0 kts | 100° |